sensor_id;sensor_type;location;lat;lon;timestamp;P1;durP1;ratioP1;P2;durP2;ratioP2
17488;SDS011;8861;52.644;4.734;2022-11-20T00:01:25;20.23;;;11.67;;
17488;SDS011;8861;52.644;4.734;2022-11-20T00:03:53;19.23;;;11.13;;
17488;SDS011;8861;52.644;4.734;2022-11-20T00:06:22;21.30;;;11.87;;
17488;SDS011;8861;52.644;4.734;2022-11-20T00:08:50;19.23;;;11.23;;
17488;SDS011;8861;52.644;4.734;2022-11-20T00:11:18;19.17;;;11.53;;
17488;SDS011;8861;52.644;4.734;2022-11-20T00:13:48;21.27;;;12.33;;
17488;SDS011;8861;52.644;4.734;2022-11-20T00:16:18;19.63;;;11.63;;
17488;SDS011;8861;52.644;4.734;2022-11-20T00:18:45;21.23;;;12.07;;
17488;SDS011;8861;52.644;4.734;2022-11-20T00:21:13;22.33;;;12.47;;
17488;SDS011;8861;52.644;4.734;2022-11-20T00:23:43;20.87;;;11.73;;
17488;SDS011;8861;52.644;4.734;2022-11-20T00:26:11;20.17;;;11.77;;
17488;SDS011;8861;52.644;4.734;2022-11-20T00:28:39;19.97;;;12.23;;
17488;SDS011;8861;52.644;4.734;2022-11-20T00:31:07;19.33;;;11.23;;
17488;SDS011;8861;52.644;4.734;2022-11-20T00:33:35;21.60;;;12.77;;
17488;SDS011;8861;52.644;4.734;2022-11-20T00:36:02;20.90;;;11.63;;
17488;SDS011;8861;52.644;4.734;2022-11-20T00:38:31;21.93;;;12.50;;
17488;SDS011;8861;52.644;4.734;2022-11-20T00:41:00;20.90;;;11.77;;
17488;SDS011;8861;52.644;4.734;2022-11-20T00:43:28;20.23;;;11.50;;
17488;SDS011;8861;52.644;4.734;2022-11-20T00:45:57;20.90;;;12.10;;
17488;SDS011;8861;52.644;4.734;2022-11-20T00:48:24;21.93;;;11.40;;
17488;SDS011;8861;52.644;4.734;2022-11-20T00:50:52;23.30;;;12.57;;
17488;SDS011;8861;52.644;4.734;2022-11-20T00:53:19;21.60;;;12.07;;
17488;SDS011;8861;52.644;4.734;2022-11-20T00:55:54;21.37;;;12.23;;
17488;SDS011;8861;52.644;4.734;2022-11-20T00:58:22;19.90;;;11.23;;
17488;SDS011;8861;52.644;4.734;2022-11-20T01:00:50;20.40;;;11.83;;
17488;SDS011;8861;52.644;4.734;2022-11-20T01:03:17;19.90;;;11.70;;
17488;SDS011;8861;52.644;4.734;2022-11-20T01:05:45;21.77;;;12.20;;
17488;SDS011;8861;52.644;4.734;2022-11-20T01:08:12;22.80;;;12.73;;
17488;SDS011;8861;52.644;4.734;2022-11-20T01:10:39;21.20;;;11.80;;
17488;SDS011;8861;52.644;4.734;2022-11-20T01:13:05;21.63;;;12.27;;
17488;SDS011;8861;52.644;4.734;2022-11-20T01:15:51;21.97;;;11.80;;
17488;SDS011;8861;52.644;4.734;2022-11-20T01:18:18;22.17;;;11.87;;
17488;SDS011;8861;52.644;4.734;2022-11-20T01:20:45;22.63;;;13.00;;
17488;SDS011;8861;52.644;4.734;2022-11-20T01:23:12;23.30;;;12.93;;
17488;SDS011;8861;52.644;4.734;2022-11-20T01:25:39;22.30;;;12.37;;
17488;SDS011;8861;52.644;4.734;2022-11-20T01:28:06;19.93;;;12.00;;
17488;SDS011;8861;52.644;4.734;2022-11-20T01:30:32;23.07;;;12.47;;
17488;SDS011;8861;52.644;4.734;2022-11-20T01:33:01;22.83;;;12.67;;
17488;SDS011;8861;52.644;4.734;2022-11-20T01:35:27;21.70;;;11.90;;
17488;SDS011;8861;52.644;4.734;2022-11-20T01:37:54;20.50;;;11.57;;
17488;SDS011;8861;52.644;4.734;2022-11-20T01:40:21;20.93;;;11.83;;
17488;SDS011;8861;52.644;4.734;2022-11-20T01:42:52;20.17;;;11.60;;
17488;SDS011;8861;52.644;4.734;2022-11-20T01:45:59;22.67;;;11.87;;
17488;SDS011;8861;52.644;4.734;2022-11-20T01:48:34;21.60;;;11.77;;
17488;SDS011;8861;52.644;4.734;2022-11-20T01:51:05;21.77;;;12.10;;
17488;SDS011;8861;52.644;4.734;2022-11-20T01:53:36;19.10;;;11.17;;
17488;SDS011;8861;52.644;4.734;2022-11-20T01:56:05;19.93;;;11.40;;
17488;SDS011;8861;52.644;4.734;2022-11-20T01:58:35;21.23;;;12.17;;
17488;SDS011;8861;52.644;4.734;2022-11-20T02:01:06;20.80;;;11.83;;
17488;SDS011;8861;52.644;4.734;2022-11-20T02:03:34;21.27;;;11.27;;
17488;SDS011;8861;52.644;4.734;2022-11-20T02:06:04;20.07;;;11.57;;
17488;SDS011;8861;52.644;4.734;2022-11-20T02:08:36;21.33;;;12.03;;
17488;SDS011;8861;52.644;4.734;2022-11-20T02:11:04;20.50;;;11.40;;
17488;SDS011;8861;52.644;4.734;2022-11-20T02:13:31;20.60;;;11.97;;
17488;SDS011;8861;52.644;4.734;2022-11-20T02:16:17;21.93;;;12.47;;
17488;SDS011;8861;52.644;4.734;2022-11-20T02:18:49;24.90;;;12.60;;
17488;SDS011;8861;52.644;4.734;2022-11-20T02:21:20;22.63;;;12.67;;
17488;SDS011;8861;52.644;4.734;2022-11-20T02:23:59;23.50;;;12.80;;
17488;SDS011;8861;52.644;4.734;2022-11-20T02:26:27;21.20;;;12.70;;
17488;SDS011;8861;52.644;4.734;2022-11-20T02:28:56;26.33;;;13.80;;
17488;SDS011;8861;52.644;4.734;2022-11-20T02:31:24;26.73;;;14.33;;
17488;SDS011;8861;52.644;4.734;2022-11-20T02:33:54;28.27;;;14.60;;
17488;SDS011;8861;52.644;4.734;2022-11-20T02:36:21;26.63;;;14.47;;
17488;SDS011;8861;52.644;4.734;2022-11-20T02:38:50;27.47;;;13.60;;
17488;SDS011;8861;52.644;4.734;2022-11-20T02:41:18;23.40;;;13.70;;
17488;SDS011;8861;52.644;4.734;2022-11-20T02:43:45;24.53;;;13.70;;
17488;SDS011;8861;52.644;4.734;2022-11-20T02:46:11;26.87;;;14.63;;
17488;SDS011;8861;52.644;4.734;2022-11-20T02:48:38;24.00;;;13.47;;
17488;SDS011;8861;52.644;4.734;2022-11-20T02:51:05;26.80;;;13.40;;
17488;SDS011;8861;52.644;4.734;2022-11-20T02:53:32;22.87;;;12.87;;
17488;SDS011;8861;52.644;4.734;2022-11-20T02:55:59;24.53;;;13.07;;
17488;SDS011;8861;52.644;4.734;2022-11-20T02:58:27;24.63;;;13.80;;
17488;SDS011;8861;52.644;4.734;2022-11-20T03:00:54;23.80;;;12.63;;
17488;SDS011;8861;52.644;4.734;2022-11-20T03:03:21;21.53;;;11.93;;
17488;SDS011;8861;52.644;4.734;2022-11-20T03:05:48;24.70;;;12.90;;
17488;SDS011;8861;52.644;4.734;2022-11-20T03:08:15;24.60;;;13.10;;
17488;SDS011;8861;52.644;4.734;2022-11-20T03:10:42;23.23;;;13.00;;
17488;SDS011;8861;52.644;4.734;2022-11-20T03:13:09;24.00;;;13.67;;
17488;SDS011;8861;52.644;4.734;2022-11-20T03:15:37;24.13;;;13.13;;
17488;SDS011;8861;52.644;4.734;2022-11-20T03:18:04;23.60;;;13.57;;
17488;SDS011;8861;52.644;4.734;2022-11-20T03:20:32;22.03;;;12.70;;
17488;SDS011;8861;52.644;4.734;2022-11-20T03:22:59;22.80;;;12.90;;
17488;SDS011;8861;52.644;4.734;2022-11-20T03:25:26;25.73;;;13.73;;
17488;SDS011;8861;52.644;4.734;2022-11-20T03:27:53;23.43;;;13.50;;
17488;SDS011;8861;52.644;4.734;2022-11-20T03:30:20;23.77;;;13.20;;
17488;SDS011;8861;52.644;4.734;2022-11-20T03:32:48;23.87;;;12.60;;
17488;SDS011;8861;52.644;4.734;2022-11-20T03:35:18;25.37;;;13.53;;
17488;SDS011;8861;52.644;4.734;2022-11-20T03:37:45;21.70;;;12.50;;
17488;SDS011;8861;52.644;4.734;2022-11-20T03:40:13;22.43;;;13.00;;
17488;SDS011;8861;52.644;4.734;2022-11-20T03:42:40;23.13;;;12.93;;
17488;SDS011;8861;52.644;4.734;2022-11-20T03:45:13;22.87;;;12.80;;
17488;SDS011;8861;52.644;4.734;2022-11-20T03:47:40;24.40;;;12.70;;
17488;SDS011;8861;52.644;4.734;2022-11-20T03:50:09;24.80;;;13.03;;
17488;SDS011;8861;52.644;4.734;2022-11-20T03:52:38;23.10;;;12.97;;
17488;SDS011;8861;52.644;4.734;2022-11-20T03:55:05;23.70;;;13.10;;
17488;SDS011;8861;52.644;4.734;2022-11-20T03:57:32;22.10;;;12.53;;
17488;SDS011;8861;52.644;4.734;2022-11-20T03:59:59;24.07;;;12.77;;
17488;SDS011;8861;52.644;4.734;2022-11-20T04:02:26;22.87;;;12.13;;
17488;SDS011;8861;52.644;4.734;2022-11-20T04:04:53;21.90;;;12.23;;
17488;SDS011;8861;52.644;4.734;2022-11-20T04:07:21;23.53;;;12.37;;
17488;SDS011;8861;52.644;4.734;2022-11-20T04:09:48;22.93;;;13.00;;
17488;SDS011;8861;52.644;4.734;2022-11-20T04:12:15;25.67;;;13.27;;
17488;SDS011;8861;52.644;4.734;2022-11-20T04:14:42;22.97;;;13.33;;
17488;SDS011;8861;52.644;4.734;2022-11-20T04:17:09;23.90;;;12.90;;
17488;SDS011;8861;52.644;4.734;2022-11-20T04:19:36;24.07;;;13.47;;
17488;SDS011;8861;52.644;4.734;2022-11-20T04:22:02;24.67;;;13.53;;
17488;SDS011;8861;52.644;4.734;2022-11-20T04:24:31;22.30;;;13.00;;
17488;SDS011;8861;52.644;4.734;2022-11-20T04:26:57;25.03;;;13.13;;
17488;SDS011;8861;52.644;4.734;2022-11-20T04:29:24;26.73;;;14.90;;
17488;SDS011;8861;52.644;4.734;2022-11-20T04:31:51;28.40;;;14.60;;
17488;SDS011;8861;52.644;4.734;2022-11-20T04:34:18;30.03;;;15.37;;
17488;SDS011;8861;52.644;4.734;2022-11-20T04:36:45;31.67;;;15.47;;
17488;SDS011;8861;52.644;4.734;2022-11-20T04:39:12;28.83;;;15.97;;
17488;SDS011;8861;52.644;4.734;2022-11-20T04:41:41;29.13;;;15.17;;
17488;SDS011;8861;52.644;4.734;2022-11-20T04:44:08;29.67;;;15.27;;
17488;SDS011;8861;52.644;4.734;2022-11-20T04:46:36;27.10;;;14.43;;
17488;SDS011;8861;52.644;4.734;2022-11-20T04:49:04;31.90;;;16.47;;
17488;SDS011;8861;52.644;4.734;2022-11-20T04:51:32;29.33;;;15.87;;
17488;SDS011;8861;52.644;4.734;2022-11-20T04:53:59;28.97;;;15.43;;
17488;SDS011;8861;52.644;4.734;2022-11-20T04:56:26;30.17;;;14.67;;
17488;SDS011;8861;52.644;4.734;2022-11-20T04:58:55;27.30;;;14.50;;
17488;SDS011;8861;52.644;4.734;2022-11-20T05:01:22;28.10;;;16.00;;
17488;SDS011;8861;52.644;4.734;2022-11-20T05:03:50;29.20;;;16.67;;
17488;SDS011;8861;52.644;4.734;2022-11-20T05:06:19;29.73;;;16.30;;
17488;SDS011;8861;52.644;4.734;2022-11-20T05:08:47;27.63;;;15.40;;
17488;SDS011;8861;52.644;4.734;2022-11-20T05:11:14;30.70;;;16.53;;
17488;SDS011;8861;52.644;4.734;2022-11-20T05:13:43;31.93;;;16.10;;
17488;SDS011;8861;52.644;4.734;2022-11-20T05:16:12;28.90;;;16.60;;
17488;SDS011;8861;52.644;4.734;2022-11-20T05:18:39;29.07;;;15.90;;
17488;SDS011;8861;52.644;4.734;2022-11-20T05:21:07;30.60;;;15.97;;
17488;SDS011;8861;52.644;4.734;2022-11-20T05:23:35;29.27;;;15.73;;
17488;SDS011;8861;52.644;4.734;2022-11-20T05:26:03;30.07;;;16.53;;
17488;SDS011;8861;52.644;4.734;2022-11-20T05:28:30;28.83;;;15.23;;
17488;SDS011;8861;52.644;4.734;2022-11-20T05:31:03;28.33;;;15.43;;
17488;SDS011;8861;52.644;4.734;2022-11-20T05:33:32;28.13;;;14.30;;
17488;SDS011;8861;52.644;4.734;2022-11-20T05:36:00;28.17;;;15.17;;
17488;SDS011;8861;52.644;4.734;2022-11-20T05:38:26;26.03;;;14.43;;
17488;SDS011;8861;52.644;4.734;2022-11-20T05:40:53;24.77;;;14.03;;
17488;SDS011;8861;52.644;4.734;2022-11-20T05:43:20;27.37;;;14.93;;
17488;SDS011;8861;52.644;4.734;2022-11-20T05:45:53;30.50;;;16.00;;
17488;SDS011;8861;52.644;4.734;2022-11-20T05:48:21;27.57;;;15.13;;
17488;SDS011;8861;52.644;4.734;2022-11-20T05:50:49;26.97;;;14.60;;
17488;SDS011;8861;52.644;4.734;2022-11-20T05:53:16;29.63;;;15.30;;
17488;SDS011;8861;52.644;4.734;2022-11-20T05:55:43;31.73;;;16.80;;
17488;SDS011;8861;52.644;4.734;2022-11-20T05:58:10;32.40;;;16.47;;
17488;SDS011;8861;52.644;4.734;2022-11-20T06:00:36;30.57;;;15.93;;
17488;SDS011;8861;52.644;4.734;2022-11-20T06:03:03;27.43;;;16.07;;
17488;SDS011;8861;52.644;4.734;2022-11-20T06:05:30;30.27;;;16.47;;
17488;SDS011;8861;52.644;4.734;2022-11-20T06:08:01;27.90;;;15.07;;
17488;SDS011;8861;52.644;4.734;2022-11-20T06:10:28;29.87;;;16.20;;
17488;SDS011;8861;52.644;4.734;2022-11-20T06:12:56;29.53;;;15.63;;
17488;SDS011;8861;52.644;4.734;2022-11-20T06:15:24;31.20;;;16.23;;
17488;SDS011;8861;52.644;4.734;2022-11-20T06:17:51;31.80;;;16.03;;
17488;SDS011;8861;52.644;4.734;2022-11-20T06:20:19;28.90;;;15.70;;
17488;SDS011;8861;52.644;4.734;2022-11-20T06:22:46;29.67;;;15.77;;
17488;SDS011;8861;52.644;4.734;2022-11-20T06:25:14;28.67;;;15.27;;
17488;SDS011;8861;52.644;4.734;2022-11-20T06:27:41;28.63;;;16.03;;
17488;SDS011;8861;52.644;4.734;2022-11-20T06:30:08;30.70;;;16.70;;
17488;SDS011;8861;52.644;4.734;2022-11-20T06:32:36;28.97;;;15.43;;
17488;SDS011;8861;52.644;4.734;2022-11-20T06:35:03;28.67;;;15.57;;
17488;SDS011;8861;52.644;4.734;2022-11-20T06:37:30;28.30;;;15.23;;
17488;SDS011;8861;52.644;4.734;2022-11-20T06:39:57;26.53;;;15.20;;
17488;SDS011;8861;52.644;4.734;2022-11-20T06:42:25;26.97;;;15.50;;
17488;SDS011;8861;52.644;4.734;2022-11-20T06:44:52;27.07;;;15.20;;
17488;SDS011;8861;52.644;4.734;2022-11-20T06:47:19;33.50;;;17.47;;
17488;SDS011;8861;52.644;4.734;2022-11-20T06:49:46;28.20;;;15.53;;
17488;SDS011;8861;52.644;4.734;2022-11-20T06:52:13;33.57;;;16.30;;
17488;SDS011;8861;52.644;4.734;2022-11-20T06:54:39;33.10;;;16.83;;
17488;SDS011;8861;52.644;4.734;2022-11-20T06:57:06;31.43;;;16.13;;
17488;SDS011;8861;52.644;4.734;2022-11-20T06:59:34;28.07;;;15.57;;
17488;SDS011;8861;52.644;4.734;2022-11-20T07:02:01;28.77;;;15.27;;
17488;SDS011;8861;52.644;4.734;2022-11-20T07:04:28;29.77;;;16.70;;
17488;SDS011;8861;52.644;4.734;2022-11-20T07:06:55;28.07;;;15.47;;
17488;SDS011;8861;52.644;4.734;2022-11-20T10:49:52;31.73;;;19.63;;
17488;SDS011;8861;52.644;4.734;2022-11-20T10:52:23;30.57;;;18.27;;
17488;SDS011;8861;52.644;4.734;2022-11-20T10:55:01;28.03;;;17.47;;
17488;SDS011;8861;52.644;4.734;2022-11-20T10:57:48;28.23;;;18.37;;
17488;SDS011;8861;52.644;4.734;2022-11-20T11:00:20;28.53;;;17.83;;
17488;SDS011;8861;52.644;4.734;2022-11-20T11:02:47;29.20;;;18.07;;
17488;SDS011;8861;52.644;4.734;2022-11-20T11:05:20;30.30;;;18.80;;
17488;SDS011;8861;52.644;4.734;2022-11-20T11:07:56;34.17;;;20.43;;
17488;SDS011;8861;52.644;4.734;2022-11-20T11:10:26;33.47;;;20.37;;
17488;SDS011;8861;52.644;4.734;2022-11-20T11:12:59;31.30;;;19.93;;
17488;SDS011;8861;52.644;4.734;2022-11-20T11:15:27;39.00;;;22.50;;
17488;SDS011;8861;52.644;4.734;2022-11-20T11:17:55;34.63;;;21.00;;
17488;SDS011;8861;52.644;4.734;2022-11-20T11:20:25;30.53;;;19.00;;
17488;SDS011;8861;52.644;4.734;2022-11-20T11:22:52;29.53;;;18.97;;
17488;SDS011;8861;52.644;4.734;2022-11-20T11:25:25;32.13;;;19.10;;
17488;SDS011;8861;52.644;4.734;2022-11-20T11:27:54;29.80;;;18.33;;
17488;SDS011;8861;52.644;4.734;2022-11-20T11:30:22;28.63;;;18.30;;
17488;SDS011;8861;52.644;4.734;2022-11-20T11:32:50;33.43;;;20.43;;
17488;SDS011;8861;52.644;4.734;2022-11-20T11:35:30;34.43;;;22.27;;
17488;SDS011;8861;52.644;4.734;2022-11-20T11:38:02;40.57;;;24.37;;
17488;SDS011;8861;52.644;4.734;2022-11-20T11:40:31;37.83;;;22.77;;
17488;SDS011;8861;52.644;4.734;2022-11-20T11:42:59;34.03;;;21.50;;
17488;SDS011;8861;52.644;4.734;2022-11-20T11:45:29;31.77;;;20.00;;
17488;SDS011;8861;52.644;4.734;2022-11-20T11:47:56;32.03;;;19.80;;
17488;SDS011;8861;52.644;4.734;2022-11-20T11:50:25;31.63;;;19.83;;
17488;SDS011;8861;52.644;4.734;2022-11-20T11:52:58;33.03;;;19.87;;
17488;SDS011;8861;52.644;4.734;2022-11-20T11:55:33;31.63;;;19.90;;
17488;SDS011;8861;52.644;4.734;2022-11-20T11:58:10;31.47;;;19.43;;
17488;SDS011;8861;52.644;4.734;2022-11-20T12:00:45;32.17;;;18.90;;
17488;SDS011;8861;52.644;4.734;2022-11-20T12:03:21;30.80;;;19.37;;
17488;SDS011;8861;52.644;4.734;2022-11-20T12:05:56;33.20;;;20.17;;
17488;SDS011;8861;52.644;4.734;2022-11-20T12:08:28;32.30;;;19.73;;
17488;SDS011;8861;52.644;4.734;2022-11-20T12:10:59;31.80;;;19.37;;
17488;SDS011;8861;52.644;4.734;2022-11-20T12:13:34;31.57;;;19.73;;
17488;SDS011;8861;52.644;4.734;2022-11-20T12:16:09;32.33;;;19.73;;
17488;SDS011;8861;52.644;4.734;2022-11-20T12:18:38;33.40;;;20.67;;
17488;SDS011;8861;52.644;4.734;2022-11-20T12:21:10;35.57;;;21.70;;
17488;SDS011;8861;52.644;4.734;2022-11-20T12:23:48;35.93;;;21.30;;
17488;SDS011;8861;52.644;4.734;2022-11-20T12:26:27;33.93;;;21.13;;
17488;SDS011;8861;52.644;4.734;2022-11-20T12:29:02;35.87;;;21.10;;
17488;SDS011;8861;52.644;4.734;2022-11-20T12:31:42;38.33;;;22.57;;
17488;SDS011;8861;52.644;4.734;2022-11-20T12:34:32;39.43;;;21.77;;
17488;SDS011;8861;52.644;4.734;2022-11-20T12:37:12;35.53;;;22.07;;
17488;SDS011;8861;52.644;4.734;2022-11-20T12:39:52;36.03;;;22.23;;
17488;SDS011;8861;52.644;4.734;2022-11-20T12:42:27;41.83;;;24.20;;
17488;SDS011;8861;52.644;4.734;2022-11-20T12:45:32;41.40;;;24.67;;
17488;SDS011;8861;52.644;4.734;2022-11-20T12:48:26;43.63;;;24.37;;
17488;SDS011;8861;52.644;4.734;2022-11-20T12:51:17;44.10;;;24.43;;
17488;SDS011;8861;52.644;4.734;2022-11-20T12:54:03;45.47;;;26.07;;
17488;SDS011;8861;52.644;4.734;2022-11-20T12:56:46;45.90;;;24.73;;
17488;SDS011;8861;52.644;4.734;2022-11-20T12:59:23;44.53;;;24.83;;
17488;SDS011;8861;52.644;4.734;2022-11-20T13:02:01;49.80;;;27.23;;
17488;SDS011;8861;52.644;4.734;2022-11-20T13:04:45;45.90;;;25.60;;
17488;SDS011;8861;52.644;4.734;2022-11-20T13:07:22;46.57;;;26.00;;
17488;SDS011;8861;52.644;4.734;2022-11-20T13:09:53;50.83;;;26.83;;
17488;SDS011;8861;52.644;4.734;2022-11-20T13:12:23;48.53;;;26.83;;
17488;SDS011;8861;52.644;4.734;2022-11-20T13:14:57;45.07;;;24.73;;
17488;SDS011;8861;52.644;4.734;2022-11-20T13:17:33;47.47;;;26.57;;
17488;SDS011;8861;52.644;4.734;2022-11-20T13:20:05;48.57;;;26.23;;
17488;SDS011;8861;52.644;4.734;2022-11-20T13:22:42;47.40;;;26.13;;
17488;SDS011;8861;52.644;4.734;2022-11-20T13:25:21;47.17;;;26.33;;
17488;SDS011;8861;52.644;4.734;2022-11-20T13:27:50;55.73;;;28.70;;
17488;SDS011;8861;52.644;4.734;2022-11-20T13:30:18;50.03;;;26.43;;
17488;SDS011;8861;52.644;4.734;2022-11-20T13:32:50;50.67;;;26.77;;
17488;SDS011;8861;52.644;4.734;2022-11-20T13:35:26;52.77;;;28.73;;
17488;SDS011;8861;52.644;4.734;2022-11-20T13:38:07;49.80;;;27.10;;
17488;SDS011;8861;52.644;4.734;2022-11-20T13:40:37;53.60;;;28.47;;
17488;SDS011;8861;52.644;4.734;2022-11-20T13:43:18;55.93;;;29.37;;
17488;SDS011;8861;52.644;4.734;2022-11-20T13:45:58;59.80;;;30.10;;
17488;SDS011;8861;52.644;4.734;2022-11-20T13:48:29;57.23;;;30.10;;
17488;SDS011;8861;52.644;4.734;2022-11-20T13:51:05;60.40;;;31.07;;
17488;SDS011;8861;52.644;4.734;2022-11-20T13:56:46;57.33;;;29.07;;
17488;SDS011;8861;52.644;4.734;2022-11-20T13:59:27;58.30;;;29.10;;
17488;SDS011;8861;52.644;4.734;2022-11-20T14:02:02;57.43;;;29.40;;
17488;SDS011;8861;52.644;4.734;2022-11-20T14:04:30;60.47;;;30.57;;
17488;SDS011;8861;52.644;4.734;2022-11-20T14:06:59;58.93;;;30.67;;
17488;SDS011;8861;52.644;4.734;2022-11-20T14:09:28;61.43;;;30.90;;
17488;SDS011;8861;52.644;4.734;2022-11-20T14:11:56;60.87;;;31.43;;
17488;SDS011;8861;52.644;4.734;2022-11-20T14:14:23;57.13;;;29.63;;
17488;SDS011;8861;52.644;4.734;2022-11-20T14:16:53;60.30;;;30.73;;
17488;SDS011;8861;52.644;4.734;2022-11-20T14:19:31;64.53;;;31.67;;
17488;SDS011;8861;52.644;4.734;2022-11-20T14:22:09;58.63;;;31.17;;
17488;SDS011;8861;52.644;4.734;2022-11-20T14:24:42;62.43;;;31.70;;
17488;SDS011;8861;52.644;4.734;2022-11-20T14:27:12;59.07;;;30.43;;
17488;SDS011;8861;52.644;4.734;2022-11-20T14:29:41;58.63;;;30.03;;
17488;SDS011;8861;52.644;4.734;2022-11-20T14:32:10;57.53;;;30.47;;
17488;SDS011;8861;52.644;4.734;2022-11-20T14:34:41;59.40;;;30.27;;
17488;SDS011;8861;52.644;4.734;2022-11-20T14:37:11;58.23;;;30.80;;
17488;SDS011;8861;52.644;4.734;2022-11-20T14:39:41;58.10;;;30.33;;
17488;SDS011;8861;52.644;4.734;2022-11-20T14:42:14;57.23;;;30.20;;
17488;SDS011;8861;52.644;4.734;2022-11-20T14:44:49;58.67;;;30.33;;
17488;SDS011;8861;52.644;4.734;2022-11-20T14:47:25;61.40;;;31.40;;
17488;SDS011;8861;52.644;4.734;2022-11-20T14:49:53;57.90;;;30.70;;
17488;SDS011;8861;52.644;4.734;2022-11-20T14:52:22;58.00;;;31.10;;
17488;SDS011;8861;52.644;4.734;2022-11-20T14:54:50;58.57;;;32.10;;
17488;SDS011;8861;52.644;4.734;2022-11-20T14:57:23;59.20;;;33.00;;
17488;SDS011;8861;52.644;4.734;2022-11-20T15:00:04;61.60;;;32.33;;
17488;SDS011;8861;52.644;4.734;2022-11-20T15:02:33;59.73;;;32.60;;
17488;SDS011;8861;52.644;4.734;2022-11-20T15:05:01;57.00;;;31.37;;
17488;SDS011;8861;52.644;4.734;2022-11-20T15:07:29;62.57;;;34.10;;
17488;SDS011;8861;52.644;4.734;2022-11-20T15:10:06;62.40;;;33.77;;
17488;SDS011;8861;52.644;4.734;2022-11-20T15:12:35;60.70;;;33.03;;
17488;SDS011;8861;52.644;4.734;2022-11-20T15:15:08;57.10;;;32.23;;
17488;SDS011;8861;52.644;4.734;2022-11-20T15:17:38;57.17;;;31.57;;
17488;SDS011;8861;52.644;4.734;2022-11-20T15:20:09;56.50;;;31.50;;
17488;SDS011;8861;52.644;4.734;2022-11-20T15:22:40;55.73;;;30.87;;
17488;SDS011;8861;52.644;4.734;2022-11-20T15:25:13;53.60;;;30.40;;
17488;SDS011;8861;52.644;4.734;2022-11-20T15:27:42;57.57;;;31.50;;
17488;SDS011;8861;52.644;4.734;2022-11-20T15:30:14;56.37;;;31.00;;
17488;SDS011;8861;52.644;4.734;2022-11-20T15:32:43;54.57;;;30.30;;
17488;SDS011;8861;52.644;4.734;2022-11-20T15:35:11;52.03;;;29.47;;
17488;SDS011;8861;52.644;4.734;2022-11-20T15:37:38;51.23;;;28.87;;
17488;SDS011;8861;52.644;4.734;2022-11-20T15:40:06;53.70;;;29.47;;
17488;SDS011;8861;52.644;4.734;2022-11-20T15:42:34;53.43;;;30.03;;
17488;SDS011;8861;52.644;4.734;2022-11-20T15:45:01;48.53;;;28.10;;
17488;SDS011;8861;52.644;4.734;2022-11-20T15:47:31;54.20;;;30.03;;
17488;SDS011;8861;52.644;4.734;2022-11-20T15:50:01;53.43;;;29.97;;
17488;SDS011;8861;52.644;4.734;2022-11-20T15:52:28;49.57;;;28.70;;
17488;SDS011;8861;52.644;4.734;2022-11-20T15:54:55;49.33;;;28.20;;
17488;SDS011;8861;52.644;4.734;2022-11-20T15:57:22;51.37;;;28.03;;
17488;SDS011;8861;52.644;4.734;2022-11-20T15:59:49;53.30;;;30.10;;
17488;SDS011;8861;52.644;4.734;2022-11-20T16:02:16;56.33;;;30.13;;
17488;SDS011;8861;52.644;4.734;2022-11-20T16:04:44;57.50;;;30.70;;
17488;SDS011;8861;52.644;4.734;2022-11-20T16:07:11;53.80;;;29.63;;
17488;SDS011;8861;52.644;4.734;2022-11-20T16:09:38;52.37;;;29.73;;
17488;SDS011;8861;52.644;4.734;2022-11-20T16:12:05;58.60;;;32.23;;
17488;SDS011;8861;52.644;4.734;2022-11-20T16:14:54;55.50;;;31.10;;
17488;SDS011;8861;52.644;4.734;2022-11-20T16:17:38;54.80;;;30.53;;
17488;SDS011;8861;52.644;4.734;2022-11-20T16:20:12;55.93;;;31.43;;
17488;SDS011;8861;52.644;4.734;2022-11-20T16:22:39;56.80;;;31.27;;
17488;SDS011;8861;52.644;4.734;2022-11-20T16:25:06;59.47;;;32.70;;
17488;SDS011;8861;52.644;4.734;2022-11-20T16:27:34;61.77;;;32.60;;
17488;SDS011;8861;52.644;4.734;2022-11-20T16:30:01;60.50;;;32.37;;
17488;SDS011;8861;52.644;4.734;2022-11-20T16:32:27;56.97;;;31.73;;
17488;SDS011;8861;52.644;4.734;2022-11-20T16:34:54;55.63;;;31.53;;
17488;SDS011;8861;52.644;4.734;2022-11-20T16:37:23;64.83;;;34.03;;
17488;SDS011;8861;52.644;4.734;2022-11-20T16:39:49;56.90;;;31.37;;
17488;SDS011;8861;52.644;4.734;2022-11-20T16:42:16;58.73;;;31.43;;
17488;SDS011;8861;52.644;4.734;2022-11-20T16:44:44;58.10;;;31.93;;
17488;SDS011;8861;52.644;4.734;2022-11-20T16:47:12;55.77;;;31.20;;
17488;SDS011;8861;52.644;4.734;2022-11-20T16:49:38;57.50;;;32.83;;
17488;SDS011;8861;52.644;4.734;2022-11-20T16:52:05;63.10;;;34.23;;
17488;SDS011;8861;52.644;4.734;2022-11-20T16:54:34;62.43;;;33.30;;
17488;SDS011;8861;52.644;4.734;2022-11-20T16:57:01;58.97;;;32.23;;
17488;SDS011;8861;52.644;4.734;2022-11-20T16:59:27;56.93;;;31.70;;
17488;SDS011;8861;52.644;4.734;2022-11-20T17:01:54;58.10;;;32.57;;
17488;SDS011;8861;52.644;4.734;2022-11-20T17:04:21;57.93;;;31.50;;
17488;SDS011;8861;52.644;4.734;2022-11-20T17:06:48;54.50;;;30.00;;
17488;SDS011;8861;52.644;4.734;2022-11-20T17:09:15;66.80;;;36.10;;
17488;SDS011;8861;52.644;4.734;2022-11-20T17:11:43;57.70;;;32.13;;
17488;SDS011;8861;52.644;4.734;2022-11-20T17:14:10;60.50;;;32.77;;
17488;SDS011;8861;52.644;4.734;2022-11-20T17:16:38;55.77;;;31.47;;
17488;SDS011;8861;52.644;4.734;2022-11-20T17:19:05;53.90;;;30.40;;
17488;SDS011;8861;52.644;4.734;2022-11-20T17:21:33;51.00;;;28.87;;
17488;SDS011;8861;52.644;4.734;2022-11-20T17:24:01;52.40;;;30.13;;
17488;SDS011;8861;52.644;4.734;2022-11-20T17:26:29;50.83;;;28.63;;
17488;SDS011;8861;52.644;4.734;2022-11-20T17:28:58;57.50;;;31.73;;
17488;SDS011;8861;52.644;4.734;2022-11-20T17:31:27;58.57;;;31.60;;
17488;SDS011;8861;52.644;4.734;2022-11-20T17:33:54;60.37;;;32.53;;
17488;SDS011;8861;52.644;4.734;2022-11-20T17:36:23;53.20;;;29.37;;
17488;SDS011;8861;52.644;4.734;2022-11-20T17:38:50;59.07;;;30.50;;
17488;SDS011;8861;52.644;4.734;2022-11-20T17:41:18;61.27;;;31.97;;
17488;SDS011;8861;52.644;4.734;2022-11-20T17:43:46;61.70;;;31.57;;
17488;SDS011;8861;52.644;4.734;2022-11-20T17:46:16;57.53;;;30.67;;
17488;SDS011;8861;52.644;4.734;2022-11-20T17:48:45;51.13;;;27.57;;
17488;SDS011;8861;52.644;4.734;2022-11-20T17:51:13;52.07;;;27.30;;
17488;SDS011;8861;52.644;4.734;2022-11-20T17:53:41;50.20;;;27.10;;
17488;SDS011;8861;52.644;4.734;2022-11-20T17:56:09;54.43;;;28.23;;
17488;SDS011;8861;52.644;4.734;2022-11-20T17:58:54;54.43;;;27.30;;
17488;SDS011;8861;52.644;4.734;2022-11-20T18:01:22;56.13;;;28.53;;
17488;SDS011;8861;52.644;4.734;2022-11-20T18:03:49;57.87;;;29.60;;
17488;SDS011;8861;52.644;4.734;2022-11-20T18:06:17;54.27;;;28.30;;
17488;SDS011;8861;52.644;4.734;2022-11-20T18:08:45;53.17;;;28.57;;
17488;SDS011;8861;52.644;4.734;2022-11-20T18:11:13;53.37;;;28.77;;
17488;SDS011;8861;52.644;4.734;2022-11-20T18:13:42;61.87;;;32.43;;
17488;SDS011;8861;52.644;4.734;2022-11-20T18:16:30;66.17;;;32.70;;
17488;SDS011;8861;52.644;4.734;2022-11-20T18:18:59;58.03;;;30.87;;
17488;SDS011;8861;52.644;4.734;2022-11-20T18:21:28;54.20;;;30.30;;
17488;SDS011;8861;52.644;4.734;2022-11-20T18:23:55;55.10;;;30.03;;
17488;SDS011;8861;52.644;4.734;2022-11-20T18:26:23;59.87;;;31.67;;
17488;SDS011;8861;52.644;4.734;2022-11-20T18:28:50;57.47;;;30.67;;
17488;SDS011;8861;52.644;4.734;2022-11-20T18:31:18;57.20;;;31.40;;
17488;SDS011;8861;52.644;4.734;2022-11-20T18:33:47;51.97;;;29.00;;